sensor_id;sensor_type;location;lat;lon;timestamp;temperature;humidity
40123;DHT22;25832;45.490;4.912;2024-02-28T00:00:15;8.30;99.90
40123;DHT22;25832;45.490;4.912;2024-02-28T00:02:41;8.30;99.90
40123;DHT22;25832;45.490;4.912;2024-02-28T00:05:07;8.30;99.90
40123;DHT22;25832;45.490;4.912;2024-02-28T00:07:32;8.20;99.90
40123;DHT22;25832;45.490;4.912;2024-02-28T00:09:58;8.20;99.90
40123;DHT22;25832;45.490;4.912;2024-02-28T00:12:24;8.20;99.90
40123;DHT22;25832;45.490;4.912;2024-02-28T00:14:53;8.20;99.90
40123;DHT22;25832;45.490;4.912;2024-02-28T00:17:19;8.20;99.90
40123;DHT22;25832;45.490;4.912;2024-02-28T00:19:44;8.20;99.90
40123;DHT22;25832;45.490;4.912;2024-02-28T00:22:10;8.20;99.90
40123;DHT22;25832;45.490;4.912;2024-02-28T00:24:35;8.20;99.90
40123;DHT22;25832;45.490;4.912;2024-02-28T00:27:01;8.20;99.90
40123;DHT22;25832;45.490;4.912;2024-02-28T00:29:27;8.20;99.90
40123;DHT22;25832;45.490;4.912;2024-02-28T00:31:52;8.20;99.90
40123;DHT22;25832;45.490;4.912;2024-02-28T00:34:18;8.10;99.90
40123;DHT22;25832;45.490;4.912;2024-02-28T00:36:44;8.10;99.90
40123;DHT22;25832;45.490;4.912;2024-02-28T00:39:10;8.10;99.90
40123;DHT22;25832;45.490;4.912;2024-02-28T00:41:37;8.10;99.90
40123;DHT22;25832;45.490;4.912;2024-02-28T00:44:03;8.10;99.90
40123;DHT22;25832;45.490;4.912;2024-02-28T00:46:28;8.10;99.90
40123;DHT22;25832;45.490;4.912;2024-02-28T00:48:54;8.00;99.90
40123;DHT22;25832;45.490;4.912;2024-02-28T00:51:20;8.00;99.90
40123;DHT22;25832;45.490;4.912;2024-02-28T00:53:45;8.10;99.90
40123;DHT22;25832;45.490;4.912;2024-02-28T00:56:11;8.00;99.90
40123;DHT22;25832;45.490;4.912;2024-02-28T00:58:37;8.00;99.90
40123;DHT22;25832;45.490;4.912;2024-02-28T01:01:04;8.00;99.90
40123;DHT22;25832;45.490;4.912;2024-02-28T01:03:29;8.00;99.90
40123;DHT22;25832;45.490;4.912;2024-02-28T01:05:56;8.00;99.90
40123;DHT22;25832;45.490;4.912;2024-02-28T01:08:26;8.00;99.90
40123;DHT22;25832;45.490;4.912;2024-02-28T01:10:52;8.00;99.90
40123;DHT22;25832;45.490;4.912;2024-02-28T01:13:17;8.00;99.90
40123;DHT22;25832;45.490;4.912;2024-02-28T01:15:43;8.00;99.90
40123;DHT22;25832;45.490;4.912;2024-02-28T01:18:09;7.90;99.90
40123;DHT22;25832;45.490;4.912;2024-02-28T01:20:35;7.90;99.90
40123;DHT22;25832;45.490;4.912;2024-02-28T01:23:01;7.80;99.90
40123;DHT22;25832;45.490;4.912;2024-02-28T01:25:27;7.80;99.90
40123;DHT22;25832;45.490;4.912;2024-02-28T01:27:52;7.70;99.90
40123;DHT22;25832;45.490;4.912;2024-02-28T01:30:18;7.70;99.90
40123;DHT22;25832;45.490;4.912;2024-02-28T01:32:44;7.70;99.90
40123;DHT22;25832;45.490;4.912;2024-02-28T01:35:10;7.70;99.90
40123;DHT22;25832;45.490;4.912;2024-02-28T01:37:35;7.70;99.90
40123;DHT22;25832;45.490;4.912;2024-02-28T01:40:01;7.70;99.90
40123;DHT22;25832;45.490;4.912;2024-02-28T01:42:26;7.70;99.90
40123;DHT22;25832;45.490;4.912;2024-02-28T01:44:52;7.70;99.90
40123;DHT22;25832;45.490;4.912;2024-02-28T01:47:18;7.70;99.90
40123;DHT22;25832;45.490;4.912;2024-02-28T01:49:46;7.60;99.90
40123;DHT22;25832;45.490;4.912;2024-02-28T01:52:13;7.70;99.90
40123;DHT22;25832;45.490;4.912;2024-02-28T01:54:39;7.70;99.90
40123;DHT22;25832;45.490;4.912;2024-02-28T01:57:05;7.70;99.90
40123;DHT22;25832;45.490;4.912;2024-02-28T01:59:31;7.60;99.90
40123;DHT22;25832;45.490;4.912;2024-02-28T02:01:57;7.70;99.90
40123;DHT22;25832;45.490;4.912;2024-02-28T02:04:24;7.60;99.90
40123;DHT22;25832;45.490;4.912;2024-02-28T02:06:50;7.60;99.90
40123;DHT22;25832;45.490;4.912;2024-02-28T02:09:18;7.60;99.90
40123;DHT22;25832;45.490;4.912;2024-02-28T02:11:43;7.60;99.90
40123;DHT22;25832;45.490;4.912;2024-02-28T02:14:10;7.70;99.90
40123;DHT22;25832;45.490;4.912;2024-02-28T02:16:35;7.60;99.90
40123;DHT22;25832;45.490;4.912;2024-02-28T02:19:01;7.60;99.90
40123;DHT22;25832;45.490;4.912;2024-02-28T02:21:33;7.60;99.90
40123;DHT22;25832;45.490;4.912;2024-02-28T02:24:00;7.50;99.90
40123;DHT22;25832;45.490;4.912;2024-02-28T02:26:25;7.50;99.90
40123;DHT22;25832;45.490;4.912;2024-02-28T02:28:51;7.60;99.90
40123;DHT22;25832;45.490;4.912;2024-02-28T02:31:17;7.60;99.90
40123;DHT22;25832;45.490;4.912;2024-02-28T02:33:42;7.50;99.90
40123;DHT22;25832;45.490;4.912;2024-02-28T02:36:08;7.50;99.90
40123;DHT22;25832;45.490;4.912;2024-02-28T02:38:33;7.50;99.90
40123;DHT22;25832;45.490;4.912;2024-02-28T02:40:59;7.50;99.90
40123;DHT22;25832;45.490;4.912;2024-02-28T02:43:25;7.50;99.90
40123;DHT22;25832;45.490;4.912;2024-02-28T02:45:51;7.50;99.90
40123;DHT22;25832;45.490;4.912;2024-02-28T02:48:16;7.50;99.90
40123;DHT22;25832;45.490;4.912;2024-02-28T02:50:42;7.40;99.90
40123;DHT22;25832;45.490;4.912;2024-02-28T02:53:09;7.50;99.90
40123;DHT22;25832;45.490;4.912;2024-02-28T02:55:35;7.40;99.90
40123;DHT22;25832;45.490;4.912;2024-02-28T02:58:01;7.40;99.90
40123;DHT22;25832;45.490;4.912;2024-02-28T03:00:28;7.40;99.90
40123;DHT22;25832;45.490;4.912;2024-02-28T03:02:54;7.40;99.90
40123;DHT22;25832;45.490;4.912;2024-02-28T03:05:19;7.40;99.90
40123;DHT22;25832;45.490;4.912;2024-02-28T03:07:45;7.40;99.90
40123;DHT22;25832;45.490;4.912;2024-02-28T03:10:11;7.40;99.90
40123;DHT22;25832;45.490;4.912;2024-02-28T03:12:36;7.40;99.90
40123;DHT22;25832;45.490;4.912;2024-02-28T03:15:02;7.40;99.90
40123;DHT22;25832;45.490;4.912;2024-02-28T03:17:29;7.40;99.90
40123;DHT22;25832;45.490;4.912;2024-02-28T03:19:54;7.40;99.90
40123;DHT22;25832;45.490;4.912;2024-02-28T03:22:20;7.40;99.90
40123;DHT22;25832;45.490;4.912;2024-02-28T03:24:46;7.40;99.90
40123;DHT22;25832;45.490;4.912;2024-02-28T03:27:12;7.40;99.90
40123;DHT22;25832;45.490;4.912;2024-02-28T03:29:37;7.40;99.90
40123;DHT22;25832;45.490;4.912;2024-02-28T03:32:03;7.40;99.90
40123;DHT22;25832;45.490;4.912;2024-02-28T03:34:29;7.30;99.90
40123;DHT22;25832;45.490;4.912;2024-02-28T03:36:55;7.30;99.90
40123;DHT22;25832;45.490;4.912;2024-02-28T03:39:21;7.30;99.90
40123;DHT22;25832;45.490;4.912;2024-02-28T03:41:46;7.20;99.90
40123;DHT22;25832;45.490;4.912;2024-02-28T03:44:12;7.20;99.90
40123;DHT22;25832;45.490;4.912;2024-02-28T03:46:37;7.10;99.90
40123;DHT22;25832;45.490;4.912;2024-02-28T03:49:03;7.10;99.90
40123;DHT22;25832;45.490;4.912;2024-02-28T03:51:29;7.10;99.90
40123;DHT22;25832;45.490;4.912;2024-02-28T03:53:58;7.10;99.90
40123;DHT22;25832;45.490;4.912;2024-02-28T03:56:27;7.10;99.90
40123;DHT22;25832;45.490;4.912;2024-02-28T03:58:53;7.00;99.90
40123;DHT22;25832;45.490;4.912;2024-02-28T04:01:19;7.00;99.90
40123;DHT22;25832;45.490;4.912;2024-02-28T04:03:44;6.90;99.90
40123;DHT22;25832;45.490;4.912;2024-02-28T04:06:10;6.90;99.90
40123;DHT22;25832;45.490;4.912;2024-02-28T04:08:36;6.90;99.90
40123;DHT22;25832;45.490;4.912;2024-02-28T04:11:02;6.90;99.90
40123;DHT22;25832;45.490;4.912;2024-02-28T04:13:28;6.90;99.90
40123;DHT22;25832;45.490;4.912;2024-02-28T04:15:54;6.90;99.90
40123;DHT22;25832;45.490;4.912;2024-02-28T04:18:19;6.90;99.90
40123;DHT22;25832;45.490;4.912;2024-02-28T04:20:45;6.90;99.90
40123;DHT22;25832;45.490;4.912;2024-02-28T04:23:11;6.90;99.90
40123;DHT22;25832;45.490;4.912;2024-02-28T04:25:36;6.90;99.90
40123;DHT22;25832;45.490;4.912;2024-02-28T04:28:05;6.90;99.90
40123;DHT22;25832;45.490;4.912;2024-02-28T04:30:31;6.90;99.90
40123;DHT22;25832;45.490;4.912;2024-02-28T04:32:57;6.90;99.90
40123;DHT22;25832;45.490;4.912;2024-02-28T04:35:22;6.90;99.90
40123;DHT22;25832;45.490;4.912;2024-02-28T04:37:48;6.90;99.90
40123;DHT22;25832;45.490;4.912;2024-02-28T04:40:14;6.90;99.90
40123;DHT22;25832;45.490;4.912;2024-02-28T04:42:41;6.90;99.90
40123;DHT22;25832;45.490;4.912;2024-02-28T04:45:08;6.90;99.90
40123;DHT22;25832;45.490;4.912;2024-02-28T04:47:34;6.90;99.90
40123;DHT22;25832;45.490;4.912;2024-02-28T04:49:59;7.00;99.90
40123;DHT22;25832;45.490;4.912;2024-02-28T04:52:25;7.00;99.90
40123;DHT22;25832;45.490;4.912;2024-02-28T04:54:52;7.00;99.90
40123;DHT22;25832;45.490;4.912;2024-02-28T04:57:19;7.00;99.90
40123;DHT22;25832;45.490;4.912;2024-02-28T04:59:44;7.00;99.90
40123;DHT22;25832;45.490;4.912;2024-02-28T05:02:10;7.00;99.90
40123;DHT22;25832;45.490;4.912;2024-02-28T05:04:36;7.00;99.90
40123;DHT22;25832;45.490;4.912;2024-02-28T05:07:01;7.00;99.90
40123;DHT22;25832;45.490;4.912;2024-02-28T05:09:28;6.90;99.90
40123;DHT22;25832;45.490;4.912;2024-02-28T05:11:53;6.90;99.90
40123;DHT22;25832;45.490;4.912;2024-02-28T05:14:19;7.00;99.90
40123;DHT22;25832;45.490;4.912;2024-02-28T05:16:46;7.00;99.90
40123;DHT22;25832;45.490;4.912;2024-02-28T05:19:12;7.00;99.90
40123;DHT22;25832;45.490;4.912;2024-02-28T05:21:41;7.00;99.90
40123;DHT22;25832;45.490;4.912;2024-02-28T05:24:07;7.00;99.90
40123;DHT22;25832;45.490;4.912;2024-02-28T05:26:35;7.00;99.90
40123;DHT22;25832;45.490;4.912;2024-02-28T05:29:01;6.90;99.90
40123;DHT22;25832;45.490;4.912;2024-02-28T05:31:27;7.00;99.90
40123;DHT22;25832;45.490;4.912;2024-02-28T05:33:54;6.90;99.90
40123;DHT22;25832;45.490;4.912;2024-02-28T05:36:23;6.90;99.90
40123;DHT22;25832;45.490;4.912;2024-02-28T05:38:49;6.90;99.90
40123;DHT22;25832;45.490;4.912;2024-02-28T05:41:16;7.00;99.90
40123;DHT22;25832;45.490;4.912;2024-02-28T05:43:43;6.90;99.90
40123;DHT22;25832;45.490;4.912;2024-02-28T05:46:08;6.90;99.90
40123;DHT22;25832;45.490;4.912;2024-02-28T05:48:34;6.90;99.90
40123;DHT22;25832;45.490;4.912;2024-02-28T05:51:03;6.90;99.90
40123;DHT22;25832;45.490;4.912;2024-02-28T05:53:29;6.90;99.90
40123;DHT22;25832;45.490;4.912;2024-02-28T05:56:01;6.90;99.90
40123;DHT22;25832;45.490;4.912;2024-02-28T05:58:27;6.90;99.90
40123;DHT22;25832;45.490;4.912;2024-02-28T06:00:52;6.90;99.90
40123;DHT22;25832;45.490;4.912;2024-02-28T06:03:18;6.90;99.90
40123;DHT22;25832;45.490;4.912;2024-02-28T06:05:44;6.90;99.90
40123;DHT22;25832;45.490;4.912;2024-02-28T06:08:10;6.80;99.90
40123;DHT22;25832;45.490;4.912;2024-02-28T06:10:35;6.80;99.90
40123;DHT22;25832;45.490;4.912;2024-02-28T06:13:02;6.80;99.90
40123;DHT22;25832;45.490;4.912;2024-02-28T06:15:28;6.80;99.90
40123;DHT22;25832;45.490;4.912;2024-02-28T06:17:56;6.80;99.90
40123;DHT22;25832;45.490;4.912;2024-02-28T06:20:22;6.80;99.90
40123;DHT22;25832;45.490;4.912;2024-02-28T06:22:48;6.70;99.90
40123;DHT22;25832;45.490;4.912;2024-02-28T06:25:13;6.70;99.90
40123;DHT22;25832;45.490;4.912;2024-02-28T06:27:44;6.70;99.90
40123;DHT22;25832;45.490;4.912;2024-02-28T06:30:11;6.70;99.90
40123;DHT22;25832;45.490;4.912;2024-02-28T06:32:38;6.70;99.90
40123;DHT22;25832;45.490;4.912;2024-02-28T06:35:04;6.70;99.90
40123;DHT22;25832;45.490;4.912;2024-02-28T06:37:30;6.70;99.90
40123;DHT22;25832;45.490;4.912;2024-02-28T06:39:55;6.70;99.90
40123;DHT22;25832;45.490;4.912;2024-02-28T06:42:21;6.70;99.90
40123;DHT22;25832;45.490;4.912;2024-02-28T06:44:47;6.70;99.90
40123;DHT22;25832;45.490;4.912;2024-02-28T06:47:13;6.60;99.90
40123;DHT22;25832;45.490;4.912;2024-02-28T06:49:38;6.70;99.90
40123;DHT22;25832;45.490;4.912;2024-02-28T06:52:04;6.60;99.90
40123;DHT22;25832;45.490;4.912;2024-02-28T06:54:30;6.70;99.90
40123;DHT22;25832;45.490;4.912;2024-02-28T06:56:57;6.60;99.90
40123;DHT22;25832;45.490;4.912;2024-02-28T06:59:22;6.70;99.90
40123;DHT22;25832;45.490;4.912;2024-02-28T07:01:48;6.70;99.90
40123;DHT22;25832;45.490;4.912;2024-02-28T07:04:14;6.70;99.90
40123;DHT22;25832;45.490;4.912;2024-02-28T07:06:39;6.70;99.90
40123;DHT22;25832;45.490;4.912;2024-02-28T07:09:08;6.70;99.90
40123;DHT22;25832;45.490;4.912;2024-02-28T07:11:34;6.70;99.90
40123;DHT22;25832;45.490;4.912;2024-02-28T07:14:00;6.70;99.90
40123;DHT22;25832;45.490;4.912;2024-02-28T07:16:28;6.60;99.90
40123;DHT22;25832;45.490;4.912;2024-02-28T07:18:54;6.70;99.90
40123;DHT22;25832;45.490;4.912;2024-02-28T07:21:20;6.60;99.90
40123;DHT22;25832;45.490;4.912;2024-02-28T07:23:45;6.70;99.90
40123;DHT22;25832;45.490;4.912;2024-02-28T07:26:17;6.70;99.90
40123;DHT22;25832;45.490;4.912;2024-02-28T07:28:43;6.70;99.90
40123;DHT22;25832;45.490;4.912;2024-02-28T07:31:18;6.70;99.90
40123;DHT22;25832;45.490;4.912;2024-02-28T07:33:44;6.70;99.90
40123;DHT22;25832;45.490;4.912;2024-02-28T07:36:12;6.60;99.90
40123;DHT22;25832;45.490;4.912;2024-02-28T07:38:37;6.60;99.90
40123;DHT22;25832;45.490;4.912;2024-02-28T07:41:03;6.70;99.90
40123;DHT22;25832;45.490;4.912;2024-02-28T07:43:30;6.60;99.90
40123;DHT22;25832;45.490;4.912;2024-02-28T07:45:58;6.60;99.90
40123;DHT22;25832;45.490;4.912;2024-02-28T07:48:24;6.70;99.90
40123;DHT22;25832;45.490;4.912;2024-02-28T07:50:50;6.70;99.90
40123;DHT22;25832;45.490;4.912;2024-02-28T07:53:16;6.60;99.90
40123;DHT22;25832;45.490;4.912;2024-02-28T07:55:42;6.70;99.90
40123;DHT22;25832;45.490;4.912;2024-02-28T07:58:08;6.60;99.90
40123;DHT22;25832;45.490;4.912;2024-02-28T08:00:34;6.60;99.90
40123;DHT22;25832;45.490;4.912;2024-02-28T08:03:00;6.60;99.90
40123;DHT22;25832;45.490;4.912;2024-02-28T08:05:26;6.70;99.90
40123;DHT22;25832;45.490;4.912;2024-02-28T08:07:51;6.60;99.90
40123;DHT22;25832;45.490;4.912;2024-02-28T08:10:17;6.70;99.90
40123;DHT22;25832;45.490;4.912;2024-02-28T08:12:43;6.70;99.90
40123;DHT22;25832;45.490;4.912;2024-02-28T08:15:09;6.70;99.90
40123;DHT22;25832;45.490;4.912;2024-02-28T08:17:35;6.70;99.90
40123;DHT22;25832;45.490;4.912;2024-02-28T08:20:02;6.70;99.90
40123;DHT22;25832;45.490;4.912;2024-02-28T08:22:30;6.70;99.90
40123;DHT22;25832;45.490;4.912;2024-02-28T08:24:56;6.60;99.90
40123;DHT22;25832;45.490;4.912;2024-02-28T08:27:21;6.70;99.90
40123;DHT22;25832;45.490;4.912;2024-02-28T08:29:52;6.60;99.90
40123;DHT22;25832;45.490;4.912;2024-02-28T08:32:18;6.60;99.90
40123;DHT22;25832;45.490;4.912;2024-02-28T08:34:47;6.70;99.90
40123;DHT22;25832;45.490;4.912;2024-02-28T08:37:13;6.70;99.90
40123;DHT22;25832;45.490;4.912;2024-02-28T08:39:39;6.70;99.90
40123;DHT22;25832;45.490;4.912;2024-02-28T08:42:05;6.70;99.90
40123;DHT22;25832;45.490;4.912;2024-02-28T08:44:31;6.70;99.90
40123;DHT22;25832;45.490;4.912;2024-02-28T08:46:56;6.70;99.90
40123;DHT22;25832;45.490;4.912;2024-02-28T08:49:22;6.70;99.90
40123;DHT22;25832;45.490;4.912;2024-02-28T08:51:48;6.70;99.90
40123;DHT22;25832;45.490;4.912;2024-02-28T08:54:13;6.70;99.90
40123;DHT22;25832;45.490;4.912;2024-02-28T08:56:39;6.70;99.90
40123;DHT22;25832;45.490;4.912;2024-02-28T08:59:05;6.70;99.90
40123;DHT22;25832;45.490;4.912;2024-02-28T09:01:30;6.70;99.90
40123;DHT22;25832;45.490;4.912;2024-02-28T09:03:56;6.70;99.90
40123;DHT22;25832;45.490;4.912;2024-02-28T09:06:21;6.70;99.90
40123;DHT22;25832;45.490;4.912;2024-02-28T09:08:47;6.70;99.90
40123;DHT22;25832;45.490;4.912;2024-02-28T09:11:13;6.70;99.90
40123;DHT22;25832;45.490;4.912;2024-02-28T09:13:38;6.70;99.90
40123;DHT22;25832;45.490;4.912;2024-02-28T09:16:04;6.80;99.90
40123;DHT22;25832;45.490;4.912;2024-02-28T09:18:30;6.70;99.90
40123;DHT22;25832;45.490;4.912;2024-02-28T09:20:55;6.80;99.90
40123;DHT22;25832;45.490;4.912;2024-02-28T09:23:21;6.80;99.90
40123;DHT22;25832;45.490;4.912;2024-02-28T09:25:47;6.80;99.90
40123;DHT22;25832;45.490;4.912;2024-02-28T09:28:12;6.80;99.90
40123;DHT22;25832;45.490;4.912;2024-02-28T09:30:41;6.90;99.90
40123;DHT22;25832;45.490;4.912;2024-02-28T09:33:07;6.90;99.90
40123;DHT22;25832;45.490;4.912;2024-02-28T09:35:33;6.80;99.90
40123;DHT22;25832;45.490;4.912;2024-02-28T09:37:59;6.80;99.90
40123;DHT22;25832;45.490;4.912;2024-02-28T09:40:24;6.80;99.90
40123;DHT22;25832;45.490;4.912;2024-02-28T09:42:53;6.80;99.90
40123;DHT22;25832;45.490;4.912;2024-02-28T09:45:21;6.80;99.90
40123;DHT22;25832;45.490;4.912;2024-02-28T09:47:47;6.80;99.90
40123;DHT22;25832;45.490;4.912;2024-02-28T09:50:13;6.80;99.90
40123;DHT22;25832;45.490;4.912;2024-02-28T09:52:39;6.80;99.90
40123;DHT22;25832;45.490;4.912;2024-02-28T09:55:05;6.90;99.90
40123;DHT22;25832;45.490;4.912;2024-02-28T09:57:32;6.80;99.90
40123;DHT22;25832;45.490;4.912;2024-02-28T10:00:00;6.80;99.90
40123;DHT22;25832;45.490;4.912;2024-02-28T10:02:26;6.80;99.90
40123;DHT22;25832;45.490;4.912;2024-02-28T10:04:54;6.80;99.90
40123;DHT22;25832;45.490;4.912;2024-02-28T10:07:21;6.90;99.90
40123;DHT22;25832;45.490;4.912;2024-02-28T10:09:47;6.80;99.90
40123;DHT22;25832;45.490;4.912;2024-02-28T10:12:13;6.80;99.90
40123;DHT22;25832;45.490;4.912;2024-02-28T10:14:39;6.90;99.90
40123;DHT22;25832;45.490;4.912;2024-02-28T10:17:05;6.90;99.90
40123;DHT22;25832;45.490;4.912;2024-02-28T10:19:31;6.90;99.90
40123;DHT22;25832;45.490;4.912;2024-02-28T10:21:57;6.90;99.90
40123;DHT22;25832;45.490;4.912;2024-02-28T10:24:25;7.00;99.90
40123;DHT22;25832;45.490;4.912;2024-02-28T10:26:51;7.00;99.90
40123;DHT22;25832;45.490;4.912;2024-02-28T10:29:23;7.00;99.90
40123;DHT22;25832;45.490;4.912;2024-02-28T10:31:50;7.00;99.90
40123;DHT22;25832;45.490;4.912;2024-02-28T10:34:17;7.00;99.90
40123;DHT22;25832;45.490;4.912;2024-02-28T10:36:44;7.10;99.90
40123;DHT22;25832;45.490;4.912;2024-02-28T10:39:11;7.10;99.90
40123;DHT22;25832;45.490;4.912;2024-02-28T10:41:40;7.20;99.90
40123;DHT22;25832;45.490;4.912;2024-02-28T10:44:05;7.20;99.90
40123;DHT22;25832;45.490;4.912;2024-02-28T10:46:31;7.20;99.90
40123;DHT22;25832;45.490;4.912;2024-02-28T10:48:57;7.20;99.90
40123;DHT22;25832;45.490;4.912;2024-02-28T10:51:26;7.30;99.90
40123;DHT22;25832;45.490;4.912;2024-02-28T10:54:07;7.30;99.90
40123;DHT22;25832;45.490;4.912;2024-02-28T10:56:34;7.30;99.90
40123;DHT22;25832;45.490;4.912;2024-02-28T10:59:01;7.40;99.90
40123;DHT22;25832;45.490;4.912;2024-02-28T11:01:28;7.30;99.90
40123;DHT22;25832;45.490;4.912;2024-02-28T11:03:54;7.30;99.90
40123;DHT22;25832;45.490;4.912;2024-02-28T11:06:21;7.40;99.90
40123;DHT22;25832;45.490;4.912;2024-02-28T11:08:48;7.40;99.90
40123;DHT22;25832;45.490;4.912;2024-02-28T11:11:20;7.40;99.90
40123;DHT22;25832;45.490;4.912;2024-02-28T11:13:56;7.40;99.90
40123;DHT22;25832;45.490;4.912;2024-02-28T11:16:29;7.40;99.90
40123;DHT22;25832;45.490;4.912;2024-02-28T11:18:54;7.30;99.90
40123;DHT22;25832;45.490;4.912;2024-02-28T11:21:23;7.40;99.90
40123;DHT22;25832;45.490;4.912;2024-02-28T11:23:50;7.30;99.90
40123;DHT22;25832;45.490;4.912;2024-02-28T11:26:15;7.30;99.90
40123;DHT22;25832;45.490;4.912;2024-02-28T11:28:41;7.30;99.90
40123;DHT22;25832;45.490;4.912;2024-02-28T11:31:07;7.30;99.90
40123;DHT22;25832;45.490;4.912;2024-02-28T11:33:33;7.30;99.90
40123;DHT22;25832;45.490;4.912;2024-02-28T11:35:59;7.30;99.90
40123;DHT22;25832;45.490;4.912;2024-02-28T11:38:28;7.30;99.90
40123;DHT22;25832;45.490;4.912;2024-02-28T11:40:54;7.30;99.90
40123;DHT22;25832;45.490;4.912;2024-02-28T11:43:23;7.30;99.90
40123;DHT22;25832;45.490;4.912;2024-02-28T11:45:49;7.30;99.90
40123;DHT22;25832;45.490;4.912;2024-02-28T11:48:16;7.40;99.90
40123;DHT22;25832;45.490;4.912;2024-02-28T11:50:42;7.40;99.90
40123;DHT22;25832;45.490;4.912;2024-02-28T11:53:08;7.40;99.90
40123;DHT22;25832;45.490;4.912;2024-02-28T11:55:34;7.40;99.90
40123;DHT22;25832;45.490;4.912;2024-02-28T11:57:59;7.40;99.90
40123;DHT22;25832;45.490;4.912;2024-02-28T12:00:25;7.40;99.90
40123;DHT22;25832;45.490;4.912;2024-02-28T12:02:51;7.40;99.90
40123;DHT22;25832;45.490;4.912;2024-02-28T12:05:19;7.50;99.90
40123;DHT22;25832;45.490;4.912;2024-02-28T12:07:45;7.50;99.90
40123;DHT22;25832;45.490;4.912;2024-02-28T12:10:11;7.50;99.90
40123;DHT22;25832;45.490;4.912;2024-02-28T12:12:38;7.50;99.90
40123;DHT22;25832;45.490;4.912;2024-02-28T12:15:05;7.50;99.90
40123;DHT22;25832;45.490;4.912;2024-02-28T12:17:31;7.60;99.90
40123;DHT22;25832;45.490;4.912;2024-02-28T12:19:59;7.60;99.90
40123;DHT22;25832;45.490;4.912;2024-02-28T12:22:25;7.60;99.90
40123;DHT22;25832;45.490;4.912;2024-02-28T12:24:51;7.60;99.90
40123;DHT22;25832;45.490;4.912;2024-02-28T12:27:16;7.60;99.90
40123;DHT22;25832;45.490;4.912;2024-02-28T12:29:42;7.60;99.90
40123;DHT22;25832;45.490;4.912;2024-02-28T12:32:09;7.70;99.90
40123;DHT22;25832;45.490;4.912;2024-02-28T12:34:35;7.70;99.90
40123;DHT22;25832;45.490;4.912;2024-02-28T12:37:01;7.70;99.90
40123;DHT22;25832;45.490;4.912;2024-02-28T12:39:27;7.70;99.90
40123;DHT22;25832;45.490;4.912;2024-02-28T12:41:52;7.70;99.90
40123;DHT22;25832;45.490;4.912;2024-02-28T12:44:18;7.70;99.90
40123;DHT22;25832;45.490;4.912;2024-02-28T12:46:44;7.70;99.90
40123;DHT22;25832;45.490;4.912;2024-02-28T12:49:09;7.80;99.90
40123;DHT22;25832;45.490;4.912;2024-02-28T12:51:43;7.80;99.90
40123;DHT22;25832;45.490;4.912;2024-02-28T12:54:10;7.80;99.90
40123;DHT22;25832;45.490;4.912;2024-02-28T12:56:36;7.80;99.90
40123;DHT22;25832;45.490;4.912;2024-02-28T12:59:03;7.90;99.90
40123;DHT22;25832;45.490;4.912;2024-02-28T13:01:29;7.90;99.90
40123;DHT22;25832;45.490;4.912;2024-02-28T13:03:56;7.90;99.90
40123;DHT22;25832;45.490;4.912;2024-02-28T13:06:22;7.90;99.90
40123;DHT22;25832;45.490;4.912;2024-02-28T13:08:47;7.90;99.90
40123;DHT22;25832;45.490;4.912;2024-02-28T13:11:24;7.90;99.90
40123;DHT22;25832;45.490;4.912;2024-02-28T13:13:51;7.90;99.90
40123;DHT22;25832;45.490;4.912;2024-02-28T13:16:17;7.90;99.90
40123;DHT22;25832;45.490;4.912;2024-02-28T13:18:43;7.90;99.90
40123;DHT22;25832;45.490;4.912;2024-02-28T13:21:09;7.90;99.90
40123;DHT22;25832;45.490;4.912;2024-02-28T13:23:35;7.90;99.90
40123;DHT22;25832;45.490;4.912;2024-02-28T13:26:03;7.90;99.90
40123;DHT22;25832;45.490;4.912;2024-02-28T13:28:29;7.90;99.90
40123;DHT22;25832;45.490;4.912;2024-02-28T13:30:58;8.00;99.90
40123;DHT22;25832;45.490;4.912;2024-02-28T13:33:25;8.00;99.90
40123;DHT22;25832;45.490;4.912;2024-02-28T13:35:51;8.00;99.90
40123;DHT22;25832;45.490;4.912;2024-02-28T13:38:18;8.00;99.90
40123;DHT22;25832;45.490;4.912;2024-02-28T13:40:45;8.00;99.90
40123;DHT22;25832;45.490;4.912;2024-02-28T13:43:11;8.00;99.90
40123;DHT22;25832;45.490;4.912;2024-02-28T13:45:48;8.10;99.90
40123;DHT22;25832;45.490;4.912;2024-02-28T13:48:21;8.10;99.90
40123;DHT22;25832;45.490;4.912;2024-02-28T13:50:48;8.20;99.90
40123;DHT22;25832;45.490;4.912;2024-02-28T13:53:17;8.20;99.90
40123;DHT22;25832;45.490;4.912;2024-02-28T13:55:43;8.20;99.90
40123;DHT22;25832;45.490;4.912;2024-02-28T13:58:13;8.30;99.90
40123;DHT22;25832;45.490;4.912;2024-02-28T14:00:39;8.20;99.90
40123;DHT22;25832;45.490;4.912;2024-02-28T14:03:06;8.30;99.90
40123;DHT22;25832;45.490;4.912;2024-02-28T14:05:32;8.30;99.90
40123;DHT22;25832;45.490;4.912;2024-02-28T14:07:57;8.30;99.90
40123;DHT22;25832;45.490;4.912;2024-02-28T14:10:24;8.30;99.90
40123;DHT22;25832;45.490;4.912;2024-02-28T14:12:50;8.30;99.90
40123;DHT22;25832;45.490;4.912;2024-02-28T14:15:18;8.20;99.90
40123;DHT22;25832;45.490;4.912;2024-02-28T14:17:44;8.20;99.90
40123;DHT22;25832;45.490;4.912;2024-02-28T14:20:11;8.20;99.90
40123;DHT22;25832;45.490;4.912;2024-02-28T14:22:36;8.30;99.90
40123;DHT22;25832;45.490;4.912;2024-02-28T14:25:04;8.30;99.90
40123;DHT22;25832;45.490;4.912;2024-02-28T14:27:29;8.20;99.90
40123;DHT22;25832;45.490;4.912;2024-02-28T14:29:58;8.30;99.90
40123;DHT22;25832;45.490;4.912;2024-02-28T14:32:24;8.30;99.90
40123;DHT22;25832;45.490;4.912;2024-02-28T14:34:49;8.30;99.90
40123;DHT22;25832;45.490;4.912;2024-02-28T14:37:16;8.30;99.90
40123;DHT22;25832;45.490;4.912;2024-02-28T14:39:42;8.40;99.90
40123;DHT22;25832;45.490;4.912;2024-02-28T14:42:07;8.40;99.90
40123;DHT22;25832;45.490;4.912;2024-02-28T14:44:34;8.40;99.90
40123;DHT22;25832;45.490;4.912;2024-02-28T14:47:00;8.40;99.90
40123;DHT22;25832;45.490;4.912;2024-02-28T14:49:25;8.40;99.90
40123;DHT22;25832;45.490;4.912;2024-02-28T14:51:51;8.40;99.90
40123;DHT22;25832;45.490;4.912;2024-02-28T14:54:17;8.30;99.90
40123;DHT22;25832;45.490;4.912;2024-02-28T14:56:45;8.30;99.90
40123;DHT22;25832;45.490;4.912;2024-02-28T14:59:11;8.30;99.90
40123;DHT22;25832;45.490;4.912;2024-02-28T15:01:36;8.30;99.90
40123;DHT22;25832;45.490;4.912;2024-02-28T15:04:02;8.30;99.90
40123;DHT22;25832;45.490;4.912;2024-02-28T15:06:28;8.30;99.90
40123;DHT22;25832;45.490;4.912;2024-02-28T15:08:53;8.20;99.90
40123;DHT22;25832;45.490;4.912;2024-02-28T15:11:19;8.20;99.90
40123;DHT22;25832;45.490;4.912;2024-02-28T15:13:45;8.20;99.90
40123;DHT22;25832;45.490;4.912;2024-02-28T15:16:10;8.20;99.90
40123;DHT22;25832;45.490;4.912;2024-02-28T15:18:37;8.20;99.90
40123;DHT22;25832;45.490;4.912;2024-02-28T15:21:03;8.20;99.90
40123;DHT22;25832;45.490;4.912;2024-02-28T15:23:28;8.20;99.90
40123;DHT22;25832;45.490;4.912;2024-02-28T15:25:56;8.20;99.90
40123;DHT22;25832;45.490;4.912;2024-02-28T15:28:21;8.20;99.90
40123;DHT22;25832;45.490;4.912;2024-02-28T15:30:49;8.10;99.90
40123;DHT22;25832;45.490;4.912;2024-02-28T15:33:15;8.10;99.90
40123;DHT22;25832;45.490;4.912;2024-02-28T15:35:40;8.20;99.90
40123;DHT22;25832;45.490;4.912;2024-02-28T15:38:06;8.20;99.90